Estaire, Canada
Current Conditions -  °F | °C
As of 3:00 AM on Sunday 26 Oct 2014 (Local Time) from CYSB Reporting Station
Overcast Overcast  
Wind Chill: 31°   Ceiling: 2300
Heat Index: 39°   Visibility: 15mi
Dew Point: 37°   Wind: 14mph
Humidity: 93%   Direction: 300°WNW
Pressure: 29.55"   Gusts: 20mph
Location:  46.3°N, 80.8°W
Report Text: CYSB 260700Z 30012G17KT 15SM BKN023 OVC061 04/03 A2955 RMK SC7SC1 SLP013
Loading
Personal Weather Stations






























Interactive Weather Map
Tropical Storm Tracking
New forecast layout! Learn more

10-Day Weather Forecast

Advertisements
Track Severe Weather on mobile